createdAt,value
2019-05-01T00:01:59.737Z,101806.84
2019-05-01T00:04:33.040Z,101808.06
2019-05-01T00:07:03.362Z,101806.02
2019-05-01T00:09:32.549Z,101811.27
2019-05-01T00:12:01.360Z,101810.14
2019-05-01T00:14:30.353Z,101809.34
2019-05-01T00:16:59.292Z,101808.44
2019-05-01T00:19:28.054Z,101809.91
2019-05-01T00:21:56.824Z,101807.47
2019-05-01T00:24:25.695Z,101806.59
2019-05-01T00:26:54.443Z,101794.38
2019-05-01T00:29:23.442Z,101799.20
2019-05-01T00:31:52.340Z,101788.75
2019-05-01T00:34:21.566Z,101801.04
2019-05-01T00:36:50.315Z,101797.45
2019-05-01T00:39:19.584Z,101797.13
2019-05-01T00:41:48.335Z,101800.59
2019-05-01T00:44:17.446Z,101799.48
2019-05-01T00:46:46.218Z,101798.21
2019-05-01T00:49:14.960Z,101794.81
2019-05-01T00:51:43.741Z,101791.84
2019-05-01T00:54:12.514Z,101791.55
2019-05-01T00:56:43.187Z,101741.30
2019-05-01T00:59:16.270Z,101788.70
2019-05-01T01:01:49.525Z,101786.27
2019-05-01T01:04:19.643Z,101787.08
2019-05-01T01:06:48.586Z,101781.24
2019-05-01T01:09:17.768Z,101782.98
2019-05-01T01:11:46.523Z,101782.52
2019-05-01T01:14:15.295Z,101780.20
2019-05-01T01:16:44.067Z,101768.27
2019-05-01T01:19:12.930Z,101771.93
2019-05-01T01:21:41.694Z,101767.44
2019-05-01T01:24:11.301Z,101771.73
2019-05-01T01:26:40.041Z,101766.48
2019-05-01T01:29:08.869Z,101766.72
2019-05-01T01:31:37.642Z,101770.69
2019-05-01T01:34:06.816Z,101772.81
2019-05-01T01:36:35.924Z,101766.18
2019-05-01T01:39:07.460Z,101767.99
2019-05-01T01:41:36.624Z,101715.81
2019-05-01T01:44:16.730Z,101763.58
2019-05-01T01:46:51.362Z,101754.88
2019-05-01T01:49:20.309Z,101749.77
2019-05-01T01:51:49.068Z,101745.59
2019-05-01T01:54:17.944Z,101740.77
2019-05-01T01:56:47.071Z,101736.80
2019-05-01T01:59:16.109Z,101736.20
2019-05-01T02:01:52.539Z,101737.77
2019-05-01T02:04:37.833Z,101739.42
2019-05-01T02:07:07.066Z,101731.70
2019-05-01T02:09:36.534Z,101729.66
2019-05-01T02:12:05.568Z,101732.27
2019-05-01T02:14:34.322Z,101735.66
2019-05-01T02:17:03.716Z,101735.94
2019-05-01T02:19:33.678Z,101727.77
2019-05-01T02:22:02.437Z,101721.85
2019-05-01T02:24:31.242Z,101724.40
2019-05-01T02:27:08.300Z,101722.59
2019-05-01T02:29:42.596Z,101716.56
2019-05-01T02:32:11.930Z,101719.89
2019-05-01T02:34:42.184Z,101721.31
2019-05-01T02:37:13.633Z,101721.77
2019-05-01T02:39:44.082Z,101720.89
2019-05-01T02:42:15.213Z,101716.91
2019-05-01T02:44:47.288Z,101711.48
2019-05-01T02:47:19.071Z,101715.68
2019-05-01T02:49:56.057Z,101703.27
2019-05-01T02:52:28.003Z,101706.77
2019-05-01T02:54:59.536Z,101702.83
2019-05-01T02:57:29.761Z,101707.59
2019-05-01T02:59:59.930Z,101711.87
2019-05-01T03:02:29.966Z,101708.86
2019-05-01T03:04:59.348Z,101705.28
2019-05-01T03:07:32.424Z,101704.06
2019-05-01T03:10:03.129Z,101698.72
2019-05-01T03:12:33.589Z,101699.22
2019-05-01T03:15:04.255Z,101693.28
2019-05-01T03:17:35.682Z,101689.62
2019-05-01T03:20:08.947Z,101691.42
2019-05-01T03:22:44.988Z,101587.30
2019-05-01T03:25:13.838Z,101690.00
2019-05-01T03:27:43.362Z,101681.45
2019-05-01T03:30:12.441Z,101684.74
2019-05-01T03:32:41.186Z,101676.81
2019-05-01T03:35:10.057Z,101672.97
2019-05-01T03:37:38.863Z,101679.33
2019-05-01T03:40:07.789Z,101678.06
2019-05-01T03:42:37.012Z,101667.62
2019-05-01T03:45:07.652Z,101666.66
2019-05-01T03:47:36.432Z,101674.55
2019-05-01T03:50:06.256Z,101671.61
2019-05-01T03:52:35.030Z,101673.47
2019-05-01T03:55:03.974Z,101668.00
2019-05-01T03:57:33.120Z,101667.10
2019-05-01T04:00:04.298Z,101666.12
2019-05-01T04:02:34.906Z,101666.04
2019-05-01T04:05:04.395Z,101670.55
2019-05-01T04:07:36.214Z,101667.47
2019-05-01T04:10:05.368Z,101664.84
2019-05-01T04:12:34.206Z,101669.52
2019-05-01T04:15:02.961Z,101672.88
2019-05-01T04:17:33.505Z,101672.41
2019-05-01T04:20:02.596Z,101671.77
2019-05-01T04:22:32.264Z,101672.94
2019-05-01T04:25:01.128Z,101671.14
2019-05-01T04:27:31.608Z,101668.00
2019-05-01T04:30:10.887Z,101671.92
2019-05-01T04:32:52.057Z,101665.55
2019-05-01T04:35:21.263Z,101665.55
2019-05-01T04:37:50.001Z,101671.92
2019-05-01T04:40:19.352Z,101677.83
2019-05-01T04:42:48.330Z,101682.76
2019-05-01T04:45:18.549Z,101685.55
2019-05-01T04:47:47.583Z,101679.27
2019-05-01T04:50:16.659Z,101679.79
2019-05-01T04:52:45.633Z,101687.84
2019-05-01T04:55:14.897Z,101682.42
2019-05-01T04:57:43.971Z,101688.00
2019-05-01T05:00:13.024Z,101679.09
2019-05-01T05:02:43.426Z,101679.09
2019-05-01T05:05:12.530Z,101685.02
2019-05-01T05:07:41.981Z,101694.59
2019-05-01T05:10:10.823Z,101688.47
2019-05-01T05:12:47.778Z,101693.80
2019-05-01T05:15:22.222Z,101692.22
2019-05-01T05:17:51.458Z,101690.94
2019-05-01T05:20:20.485Z,101690.20
2019-05-01T05:22:49.659Z,101687.94
2019-05-01T05:25:18.871Z,101690.86
2019-05-01T05:27:49.575Z,101694.78
2019-05-01T05:30:19.202Z,101691.56
2019-05-01T05:32:49.905Z,101689.77
2019-05-01T05:35:21.351Z,101690.73
2019-05-01T05:37:56.670Z,101695.61
2019-05-01T05:40:28.413Z,101695.61
2019-05-01T05:42:57.714Z,101689.59
2019-05-01T05:45:27.466Z,101685.54
2019-05-01T05:47:56.727Z,101677.23
2019-05-01T05:50:33.249Z,101684.58
2019-05-01T05:53:05.563Z,101683.91
2019-05-01T05:55:40.649Z,101683.14
2019-05-01T05:58:14.311Z,101686.45
2019-05-01T06:01:02.588Z,101684.41
2019-05-01T06:03:43.742Z,101687.80
2019-05-01T06:06:18.466Z,101690.72
2019-05-01T06:08:54.148Z,101700.30
2019-05-01T06:11:44.168Z,101696.03
2019-05-01T06:14:22.286Z,101695.00
2019-05-01T06:17:05.369Z,101699.04
2019-05-01T06:19:53.732Z,101694.45
2019-05-01T06:22:27.989Z,101692.43
2019-05-01T06:24:58.801Z,101698.56
2019-05-01T06:27:28.382Z,101697.95
2019-05-01T06:29:58.731Z,101693.09
2019-05-01T06:32:33.612Z,101690.96
2019-05-01T06:35:03.199Z,101686.84
2019-05-01T06:37:38.553Z,101688.56
2019-05-01T06:40:08.678Z,101690.45
2019-05-01T06:42:38.844Z,101687.56
2019-05-01T06:45:16.761Z,101687.04
2019-05-01T06:47:47.071Z,101689.77
2019-05-01T06:50:17.852Z,101686.33
2019-05-01T06:52:47.063Z,101690.14
2019-05-01T06:55:16.894Z,101690.84
2019-05-01T06:57:47.050Z,101686.25
2019-05-01T07:00:17.928Z,101691.27
2019-05-01T07:02:49.343Z,101693.04
2019-05-01T07:05:19.610Z,101685.77
2019-05-01T07:07:53.184Z,101684.70
2019-05-01T07:10:29.667Z,101683.77
2019-05-01T07:12:51.176Z,101681.61
2019-05-01T07:15:21.963Z,101677.06
2019-05-01T07:17:50.863Z,101681.84
2019-05-01T07:20:37.476Z,101674.84
2019-05-01T07:23:06.812Z,101671.20
2019-05-01T07:25:39.445Z,101672.06
2019-05-01T07:28:06.746Z,101680.98
2019-05-01T07:30:41.564Z,101680.98
2019-05-01T07:33:11.944Z,101675.47
2019-05-01T07:35:42.723Z,101674.44
2019-05-01T07:38:11.806Z,101678.09
2019-05-01T07:40:41.309Z,101674.92
2019-05-01T07:43:14.557Z,101677.14
2019-05-01T07:45:45.834Z,101679.34
2019-05-01T07:48:17.458Z,101673.22
2019-05-01T07:50:47.347Z,101674.06
2019-05-01T07:53:17.071Z,101680.30
2019-05-01T07:55:48.570Z,101682.53
2019-05-01T07:58:18.240Z,101677.96
2019-05-01T08:00:52.346Z,101682.03
2019-05-01T08:03:21.264Z,101678.94
2019-05-01T08:05:50.125Z,101676.48
2019-05-01T08:08:21.917Z,101689.81
2019-05-01T08:10:52.908Z,101685.91
2019-05-01T08:13:24.920Z,101685.48
2019-05-01T08:16:07.299Z,101680.33
2019-05-01T08:18:37.277Z,101682.91
2019-05-01T08:21:07.810Z,101683.33
2019-05-01T08:23:42.675Z,101683.39
2019-05-01T08:26:11.697Z,101676.28
2019-05-01T08:28:57.848Z,101681.02
2019-05-01T08:31:29.082Z,101681.91
2019-05-01T08:34:06.753Z,101683.00
2019-05-01T08:36:37.209Z,101677.47
2019-05-01T08:39:09.267Z,101680.69
2019-05-01T08:41:38.085Z,101664.36
2019-05-01T08:44:07.729Z,101664.36
2019-05-01T08:46:38.197Z,101677.47
2019-05-01T08:49:11.299Z,101680.00
2019-05-01T08:51:40.585Z,101679.64
2019-05-01T08:54:09.527Z,101676.10
2019-05-01T08:56:39.911Z,101672.18
2019-05-01T08:59:09.758Z,101663.63
2019-05-01T09:01:39.556Z,101673.66
2019-05-01T09:04:13.521Z,101668.30
2019-05-01T09:06:45.204Z,101659.66
2019-05-01T09:09:14.580Z,101660.25
2019-05-01T09:11:44.226Z,101661.02
2019-05-01T09:14:22.839Z,101661.05
2019-05-01T09:16:55.455Z,101658.36
2019-05-01T09:19:26.017Z,101656.53
2019-05-01T09:21:57.156Z,101660.06
2019-05-01T09:24:28.011Z,101657.56
2019-05-01T09:27:18.655Z,101655.73
2019-05-01T09:29:52.871Z,101655.55
2019-05-01T09:32:22.034Z,101659.30
2019-05-01T09:34:52.308Z,101648.22
2019-05-01T09:37:21.330Z,101652.16
2019-05-01T09:39:56.492Z,101652.16
2019-05-01T09:42:27.730Z,101647.97
2019-05-01T09:44:56.922Z,101645.36
2019-05-01T09:47:26.816Z,101645.16
2019-05-01T09:49:56.106Z,101637.66
2019-05-01T09:52:26.688Z,101641.19
2019-05-01T09:55:09.040Z,101643.51
2019-05-01T09:57:41.262Z,101640.95
2019-05-01T10:00:10.258Z,101637.91
2019-05-01T10:02:54.766Z,101635.48
2019-05-01T10:05:29.089Z,101631.31
2019-05-01T10:07:59.813Z,101627.61
2019-05-01T10:10:31.776Z,101632.94
2019-05-01T10:13:00.910Z,101628.66
2019-05-01T10:15:39.205Z,101632.16
2019-05-01T10:18:08.707Z,101626.55
2019-05-01T10:20:40.947Z,101626.77
2019-05-01T10:23:12.945Z,101622.02
2019-05-01T10:25:47.837Z,101620.80
2019-05-01T10:28:26.358Z,101615.27
2019-05-01T10:31:01.361Z,101619.68
2019-05-01T10:33:53.968Z,101617.35
2019-05-01T10:36:32.303Z,101606.48
2019-05-01T10:39:01.376Z,101610.22
2019-05-01T10:41:31.574Z,101605.95
2019-05-01T10:44:00.617Z,101603.77
2019-05-01T10:46:29.402Z,101600.95
2019-05-01T10:48:59.987Z,101600.96
2019-05-01T10:51:29.547Z,101598.90
2019-05-01T10:53:58.706Z,101597.29
2019-05-01T10:56:27.962Z,101592.97
2019-05-01T10:58:56.809Z,101595.95
2019-05-01T11:01:33.161Z,101585.30
2019-05-01T11:04:02.462Z,101589.84
2019-05-01T11:06:31.308Z,101585.02
2019-05-01T11:09:00.399Z,101584.16
2019-05-01T11:11:31.763Z,101580.06
2019-05-01T11:14:00.560Z,101579.30
2019-05-01T11:16:35.151Z,101593.55
2019-05-01T11:19:08.736Z,101581.03
2019-05-01T11:21:46.699Z,101577.44
2019-05-01T11:24:16.817Z,101575.52
2019-05-01T11:26:47.368Z,101580.34
2019-05-01T11:29:16.505Z,101577.42
2019-05-01T11:31:56.441Z,101577.44
2019-05-01T11:34:37.046Z,101573.34
2019-05-01T11:37:23.659Z,101570.09
2019-05-01T11:40:03.647Z,101567.62
2019-05-01T11:42:32.915Z,101568.98
2019-05-01T11:45:01.717Z,101561.88
2019-05-01T11:47:31.859Z,101554.25
2019-05-01T11:50:04.805Z,101564.63
2019-05-01T11:52:34.784Z,101561.91
2019-05-01T11:55:03.819Z,101557.25
2019-05-01T11:57:35.136Z,101561.08
2019-05-01T12:00:06.012Z,101559.40
2019-05-01T12:02:35.109Z,101564.65
2019-05-01T12:05:07.269Z,101552.05
2019-05-01T12:07:44.819Z,101550.07
2019-05-01T12:10:15.679Z,101548.95
2019-05-01T12:12:44.939Z,101540.77
2019-05-01T12:15:15.528Z,101534.46
2019-05-01T12:17:50.633Z,101532.80
2019-05-01T12:20:22.829Z,101534.95
2019-05-01T12:22:55.483Z,101536.73
2019-05-01T12:25:25.107Z,101535.64
2019-05-01T12:27:55.198Z,101527.21
2019-05-01T12:30:24.403Z,101528.57
2019-05-01T12:32:53.936Z,101526.66
2019-05-01T12:35:24.054Z,101520.38
2019-05-01T12:37:55.459Z,101517.08
2019-05-01T12:40:31.022Z,101512.14
2019-05-01T12:43:00.406Z,101509.17
2019-05-01T12:45:29.874Z,101502.42
2019-05-01T12:48:00.495Z,101501.39
2019-05-01T12:50:33.441Z,101507.17
2019-05-01T12:53:16.565Z,101496.19
2019-05-01T12:55:53.448Z,101494.86
2019-05-01T12:58:23.346Z,101494.02
2019-05-01T13:00:55.247Z,101496.50
2019-05-01T13:03:24.465Z,101489.21
2019-05-01T13:05:54.694Z,101477.80
2019-05-01T13:08:23.710Z,101474.18
2019-05-01T13:10:52.974Z,101473.67
2019-05-01T13:13:23.061Z,101473.67
2019-05-01T13:15:56.546Z,101470.43
2019-05-01T13:18:30.266Z,101471.13
2019-05-01T13:20:59.289Z,101469.58
2019-05-01T13:23:31.587Z,101472.90
2019-05-01T13:26:02.681Z,101463.63
2019-05-01T13:28:45.256Z,101463.98
2019-05-01T13:31:21.577Z,101467.05
2019-05-01T13:33:51.407Z,101458.04
2019-05-01T13:36:23.079Z,101464.17
2019-05-01T13:38:53.904Z,101447.64
2019-05-01T13:41:25.569Z,101455.48
2019-05-01T13:43:57.661Z,101449.49
2019-05-01T13:46:27.355Z,101442.67
2019-05-01T13:48:57.413Z,101441.52
2019-05-01T13:51:26.211Z,101442.16
2019-05-01T13:53:56.856Z,101440.09
2019-05-01T13:56:33.379Z,101439.15
2019-05-01T13:59:02.238Z,101439.83
2019-05-01T14:01:31.234Z,101431.94
2019-05-01T14:03:59.991Z,101431.75
2019-05-01T14:06:29.713Z,101438.88
2019-05-01T14:08:59.178Z,101426.27
2019-05-01T14:11:28.230Z,101428.88
2019-05-01T14:13:57.838Z,101425.70
2019-05-01T14:16:26.674Z,101426.78
2019-05-01T14:18:56.012Z,101421.69
2019-05-01T14:21:29.642Z,101409.27
2019-05-01T14:24:00.359Z,101407.98
2019-05-01T14:26:32.253Z,101409.55
2019-05-01T14:29:01.994Z,101403.22
2019-05-01T14:31:35.239Z,101400.95
2019-05-01T14:34:04.850Z,101396.02
2019-05-01T14:36:34.314Z,101397.64
2019-05-01T14:39:06.208Z,101395.97
2019-05-01T14:41:35.741Z,101386.20
2019-05-01T14:44:06.316Z,101387.38
2019-05-01T14:46:37.585Z,101393.05
2019-05-01T14:49:07.232Z,101384.05
2019-05-01T14:51:36.138Z,101383.03
2019-05-01T14:54:05.929Z,101383.39
2019-05-01T14:56:34.696Z,101365.61
2019-05-01T14:59:03.684Z,101367.98
2019-05-01T15:01:33.098Z,101371.91
2019-05-01T15:04:15.109Z,101369.28
2019-05-01T15:06:57.730Z,101373.75
2019-05-01T15:09:30.349Z,101371.95
2019-05-01T15:12:09.206Z,101374.06
2019-05-01T15:14:49.591Z,101368.02
2019-05-01T15:17:26.659Z,101370.51
2019-05-01T15:19:59.508Z,101362.27
2019-05-01T15:22:37.343Z,101355.82
2019-05-01T15:25:11.101Z,101351.07
2019-05-01T15:27:40.972Z,101359.78
2019-05-01T15:30:13.245Z,101354.39
2019-05-01T15:32:42.226Z,101352.40
2019-05-01T15:35:11.093Z,101353.86
2019-05-01T15:37:40.443Z,101341.45
2019-05-01T15:40:11.201Z,101341.45
2019-05-01T15:42:41.708Z,101334.28
2019-05-01T15:45:12.356Z,101334.28
2019-05-01T15:47:41.497Z,101342.44
2019-05-01T15:50:11.742Z,101344.63
2019-05-01T15:52:41.491Z,101340.50
2019-05-01T15:55:10.842Z,101340.20
2019-05-01T15:57:40.025Z,101341.56
2019-05-01T16:00:10.335Z,101330.74
2019-05-01T16:02:39.251Z,101330.52
2019-05-01T16:05:08.653Z,101326.13
2019-05-01T16:07:37.871Z,101315.80
2019-05-01T16:10:09.340Z,101315.84
2019-05-01T16:12:47.562Z,101315.84
2019-05-01T16:15:27.489Z,101317.22
2019-05-01T16:17:56.323Z,101313.10
2019-05-01T16:20:32.453Z,101315.59
2019-05-01T16:23:01.493Z,101312.58
2019-05-01T16:25:30.363Z,101304.73
2019-05-01T16:27:59.260Z,101308.28
2019-05-01T16:30:32.148Z,101302.28
2019-05-01T16:33:11.382Z,101302.00
2019-05-01T16:35:43.449Z,101307.17
2019-05-01T16:38:22.797Z,101297.92
2019-05-01T16:40:59.822Z,101299.00
2019-05-01T16:43:28.986Z,101300.08
2019-05-01T16:45:59.665Z,101296.83
2019-05-01T16:48:28.738Z,101291.11
2019-05-01T16:50:57.943Z,101291.09
2019-05-01T16:53:27.052Z,101292.72
2019-05-01T16:55:57.526Z,101285.67
2019-05-01T16:58:26.406Z,101290.78
2019-05-01T17:01:02.280Z,101284.48
2019-05-01T17:03:33.001Z,101282.88
2019-05-01T17:06:22.261Z,101282.08
2019-05-01T17:08:52.705Z,101280.12
2019-05-01T17:11:23.792Z,101281.19
2019-05-01T17:13:52.837Z,101276.50
2019-05-01T17:16:22.062Z,101276.28
2019-05-01T17:18:50.899Z,101277.52
2019-05-01T17:21:19.926Z,101272.83
2019-05-01T17:23:48.995Z,101270.64
2019-05-01T17:26:18.202Z,101267.56
2019-05-01T17:28:47.497Z,101267.02
2019-05-01T17:31:16.697Z,101271.02
2019-05-01T17:33:45.607Z,101268.24
2019-05-01T17:36:14.992Z,101263.83
2019-05-01T17:38:49.719Z,101268.11
2019-05-01T17:41:15.233Z,101267.48
2019-05-01T17:43:44.671Z,101268.77
2019-05-01T17:46:14.777Z,101265.14
2019-05-01T17:48:43.752Z,101266.16
2019-05-01T17:51:12.950Z,101269.95
2019-05-01T17:53:41.953Z,101264.69
2019-05-01T17:56:15.308Z,101266.75
2019-05-01T17:58:42.401Z,101269.13
2019-05-01T18:01:33.110Z,101267.47
2019-05-01T18:04:18.011Z,101265.80
2019-05-01T18:06:48.992Z,101267.59
2019-05-01T18:09:18.272Z,101273.28
2019-05-01T18:11:51.674Z,101266.70
2019-05-01T18:14:17.790Z,101262.73
2019-05-01T18:16:46.823Z,101275.07
2019-05-01T18:19:15.820Z,101264.47
2019-05-01T18:21:46.880Z,101265.14
2019-05-01T18:24:27.106Z,101264.02
2019-05-01T18:27:00.568Z,101269.53
2019-05-01T18:29:31.503Z,101270.22
2019-05-01T18:32:02.920Z,101270.30
2019-05-01T18:34:33.747Z,101267.50
2019-05-01T18:37:04.327Z,101265.20
2019-05-01T18:39:35.108Z,101264.18
2019-05-01T18:42:08.391Z,101260.28
2019-05-01T18:44:37.354Z,101267.45
2019-05-01T18:47:07.981Z,101270.34
2019-05-01T18:49:37.668Z,101265.84
2019-05-01T18:52:07.132Z,101268.41
2019-05-01T18:54:36.465Z,101261.88
2019-05-01T18:57:06.220Z,101267.73
2019-05-01T18:59:35.640Z,101272.31
2019-05-01T19:02:07.091Z,101272.31
2019-05-01T19:04:36.920Z,101269.19
2019-05-01T19:07:05.968Z,101268.53
2019-05-01T19:09:37.109Z,101270.63
2019-05-01T19:12:07.943Z,101270.69
2019-05-01T19:14:37.050Z,101276.41
2019-05-01T19:17:06.448Z,101272.27
2019-05-01T19:19:35.875Z,101262.81
2019-05-01T19:22:06.566Z,101265.69
2019-05-01T19:24:38.012Z,101279.62
2019-05-01T19:27:06.654Z,101273.83
2019-05-01T19:29:36.454Z,101275.72
2019-05-01T19:32:07.147Z,101274.06
2019-05-01T19:34:36.231Z,101327.55
2019-05-01T19:37:05.742Z,101272.31
2019-05-01T19:39:43.366Z,101268.17
2019-05-01T19:42:06.485Z,101268.50
2019-05-01T19:44:41.116Z,101265.17
2019-05-01T19:47:10.325Z,101263.42
2019-05-01T19:49:45.733Z,101264.52
2019-05-01T19:52:14.855Z,101275.21
2019-05-01T19:54:43.844Z,101266.23
2019-05-01T19:57:12.796Z,101269.09
2019-05-01T19:59:42.083Z,101271.90
2019-05-01T20:02:12.845Z,101265.77
2019-05-01T20:04:45.254Z,101268.42
2019-05-01T20:07:15.834Z,101270.84
2019-05-01T20:09:55.913Z,101269.54
2019-05-01T20:12:20.757Z,101268.72
2019-05-01T20:14:49.815Z,101266.84
2019-05-01T20:17:18.698Z,101260.10
2019-05-01T20:19:48.379Z,101254.97
2019-05-01T20:22:20.537Z,101262.11
2019-05-01T20:24:50.489Z,101255.47
2019-05-01T20:27:19.214Z,101252.93
2019-05-01T20:29:49.017Z,101256.85
2019-05-01T20:32:21.148Z,101255.44
2019-05-01T20:34:52.847Z,101255.44
2019-05-01T20:37:21.136Z,101249.23
2019-05-01T20:39:50.072Z,101249.69
2019-05-01T20:42:18.848Z,101257.65
2019-05-01T20:44:47.581Z,101251.70
2019-05-01T20:47:27.804Z,101251.38
2019-05-01T20:49:46.846Z,101255.06
2019-05-01T20:52:15.574Z,101251.09
2019-05-01T20:54:44.298Z,101247.90
2019-05-01T20:57:20.999Z,101203.91
2019-05-01T20:59:48.169Z,101249.58
2019-05-01T21:02:16.021Z,101249.45
2019-05-01T21:04:46.580Z,101243.23
2019-05-01T21:07:20.084Z,101248.10
2019-05-01T21:09:56.819Z,101244.97
2019-05-01T21:12:22.245Z,101241.52
2019-05-01T21:14:51.138Z,101242.42
2019-05-01T21:17:19.960Z,101245.81
2019-05-01T21:19:48.707Z,101222.70
2019-05-01T21:22:17.504Z,101195.81
2019-05-01T21:24:46.237Z,101238.20
2019-05-01T21:27:18.727Z,101239.37
2019-05-01T21:29:49.422Z,101230.56
2019-05-01T21:32:44.321Z,101233.69
2019-05-01T21:35:20.106Z,101236.97
2019-05-01T21:37:55.891Z,101231.89
2019-05-01T21:40:37.684Z,101232.27
2019-05-01T21:42:56.777Z,101229.14
2019-05-01T21:45:25.984Z,101235.69
2019-05-01T21:47:54.850Z,101227.53
2019-05-01T21:50:26.376Z,101218.04
2019-05-01T21:52:58.003Z,101223.55
2019-05-01T21:55:29.768Z,101216.73
2019-05-01T21:57:56.344Z,101218.27
2019-05-01T22:00:27.363Z,101210.68
2019-05-01T22:02:57.497Z,101210.16
2019-05-01T22:05:27.231Z,101203.85
2019-05-01T22:07:58.740Z,101206.17
2019-05-01T22:10:28.449Z,101200.12
2019-05-01T22:12:58.217Z,101204.25
2019-05-01T22:15:34.426Z,101200.85
2019-05-01T22:18:10.561Z,101204.49
2019-05-01T22:20:46.691Z,101204.68
2019-05-01T22:23:21.656Z,101199.45
2019-05-01T22:25:52.138Z,101192.37
2019-05-01T22:28:22.484Z,101193.92
2019-05-01T22:30:55.977Z,101190.78
2019-05-01T22:33:25.620Z,101184.25
2019-05-01T22:35:54.373Z,101186.58
2019-05-01T22:38:23.211Z,101185.34
2019-05-01T22:41:05.502Z,101183.77
2019-05-01T22:43:25.409Z,101184.52
2019-05-01T22:45:56.229Z,101181.91
2019-05-01T22:48:24.970Z,101176.73
2019-05-01T22:50:55.410Z,101172.05
2019-05-01T22:53:24.216Z,101173.92
2019-05-01T22:55:57.210Z,101167.55
2019-05-01T22:58:23.515Z,101168.48
2019-05-01T23:00:53.852Z,101166.30
2019-05-01T23:03:27.151Z,101161.12
2019-05-01T23:05:56.016Z,101160.49
2019-05-01T23:08:29.254Z,101151.06
2019-05-01T23:10:58.687Z,101151.64
2019-05-01T23:13:27.605Z,101152.16
2019-05-01T23:15:58.049Z,101145.97
2019-05-01T23:18:26.896Z,101146.85
2019-05-01T23:20:55.676Z,101148.42
2019-05-01T23:23:24.444Z,101155.46
2019-05-01T23:25:53.287Z,101150.34
2019-05-01T23:28:22.055Z,101143.60
2019-05-01T23:30:50.874Z,101146.18
2019-05-01T23:33:19.735Z,101141.26
2019-05-01T23:35:48.483Z,101136.39
2019-05-01T23:38:17.294Z,101135.59
2019-05-01T23:40:50.883Z,101137.69
2019-05-01T23:43:16.554Z,101133.12
2019-05-01T23:45:45.464Z,101138.56
2019-05-01T23:48:14.223Z,101131.66
2019-05-01T23:50:43.015Z,101128.18
2019-05-01T23:53:13.867Z,101128.44
2019-05-01T23:55:42.366Z,101120.09
2019-05-01T23:58:11.143Z,101115.77
